Time;durP1;ratioP1;P1;durP2;ratioP2;P2;SDS_P1;SDS_P2;PMS_P1;PMS_P2;Temp;Humidity;BMP_temperature;BMP_pressure;BME280_temperature;BME280_humidity;BME280_pressure;Samples;Min_cycle;Max_cycle;Signal;HPM_P1;HPM_P2
2022/03/18 00:02:22;;;;;;;3.40;1.15;;;4.80;99.90;;;;;;6214534;23;20008;-88
2022/03/18 00:04:50;;;;;;;7.40;1.27;;;3.50;99.90;;;;;;6214732;23;20064;-88
2022/03/18 00:07:16;;;;;;;4.55;1.50;;;3.60;99.90;;;;;;6213141;23;20021;-88
2022/03/18 00:09:42;;;;;;;9.70;2.15;;;3.70;99.90;;;;;;6214499;23;20143;-84
2022/03/18 00:12:11;;;;;;;7.68;1.90;;;3.70;99.90;;;;;;6215017;23;20040;-88
2022/03/18 00:14:40;;;;;;;6.65;1.80;;;4.70;99.90;;;;;;6212965;23;20048;-88
2022/03/18 00:17:10;;;;;;;13.23;2.10;;;4.60;99.90;;;;;;6214004;23;20512;-88
2022/03/18 00:19:38;;;;;;;4.25;1.60;;;3.90;99.90;;;;;;6215195;23;20009;-87
2022/03/18 00:22:05;;;;;;;3.50;1.42;;;3.90;99.90;;;;;;6213401;23;20043;-87
2022/03/18 00:24:32;;;;;;;3.45;1.42;;;3.90;99.90;;;;;;6214777;23;20339;-86
2022/03/18 00:26:59;;;;;;;6.25;1.70;;;3.90;99.90;;;;;;6214610;23;20063;-87
2022/03/18 00:29:25;;;;;;;7.47;1.83;;;4.40;99.90;;;;;;6214550;23;20044;-87
2022/03/18 00:31:51;;;;;;;5.65;1.67;;;3.80;99.90;;;;;;6213255;23;20016;-87
2022/03/18 00:34:17;;;;;;;4.82;1.80;;;3.70;99.90;;;;;;6214202;23;20024;-88
2022/03/18 00:36:43;;;;;;;5.10;1.83;;;2.70;99.90;;;;;;6213683;23;20017;-87
2022/03/18 00:39:09;;;;;;;5.32;1.70;;;3.40;99.90;;;;;;6213924;23;20467;-88
2022/03/18 00:41:34;;;;;;;4.10;1.60;;;4.70;99.90;;;;;;6213155;23;20013;-88
2022/03/18 00:44:00;;;;;;;3.92;1.20;;;4.40;99.90;;;;;;6215133;23;20388;-87
2022/03/18 00:46:26;;;;;;;6.28;1.60;;;3.90;99.90;;;;;;6214370;23;20042;-88
2022/03/18 00:54:21;;;;;;;4.05;1.40;;;3.90;99.90;;;;;;6215872;23;20317;-84
2022/03/18 00:56:47;;;;;;;9.05;2.63;;;3.80;99.90;;;;;;6214864;23;20027;-87
2022/03/18 00:59:13;;;;;;;6.13;1.85;;;3.80;99.90;;;;;;6216596;23;20451;-88
2022/03/18 01:01:39;;;;;;;5.22;2.28;;;3.70;99.90;;;;;;6214727;23;20015;-88
2022/03/18 01:04:05;;;;;;;5.53;1.95;;;4.80;99.90;;;;;;6216370;23;20016;-88
2022/03/18 01:06:32;;;;;;;3.53;1.77;;;3.70;99.90;;;;;;6216353;23;20455;-88
2022/03/18 01:08:58;;;;;;;2.53;1.10;;;3.30;99.90;;;;;;6216908;23;20016;-86
2022/03/18 01:11:24;;;;;;;5.88;1.88;;;3.80;99.90;;;;;;6215144;23;20522;-88
2022/03/18 01:13:49;;;;;;;3.88;2.00;;;3.80;99.90;;;;;;6216533;23;20036;-88
2022/03/18 01:16:16;;;;;;;4.80;1.70;;;5.20;99.90;;;;;;6216086;23;20021;-88
2022/03/18 01:19:00;;;;;;;5.65;2.38;;;5.10;99.90;;;;;;6216594;23;20016;-87
2022/03/18 01:21:25;;;;;;;5.25;1.55;;;5.00;99.90;;;;;;6214661;23;20024;-86
2022/03/18 01:23:51;;;;;;;4.80;1.80;;;4.00;99.90;;;;;;6216570;23;20316;-87
2022/03/18 01:26:17;;;;;;;4.95;1.90;;;4.40;99.90;;;;;;6214685;23;20020;-88
2022/03/18 01:28:43;;;;;;;5.13;1.50;;;3.70;99.90;;;;;;6216565;23;20450;-88
2022/03/18 01:31:09;;;;;;;4.95;2.25;;;3.60;99.90;;;;;;6214106;23;20019;-88
2022/03/18 01:33:36;;;;;;;6.15;1.52;;;4.40;99.90;;;;;;6216222;23;20016;-87
2022/03/18 01:36:04;;;;;;;5.57;1.70;;;4.10;99.90;;;;;;6214466;23;20386;-88
2022/03/18 01:38:30;;;;;;;7.22;2.22;;;3.70;99.90;;;;;;6214877;23;20048;-86
2022/03/18 01:40:55;;;;;;;5.38;1.80;;;4.40;99.90;;;;;;6216525;23;20530;-87
2022/03/18 01:43:21;;;;;;;6.50;1.90;;;3.80;99.90;;;;;;6216268;23;20036;-87
2022/03/18 01:45:49;;;;;;;4.05;1.50;;;3.80;99.90;;;;;;6215401;23;20016;-87
2022/03/18 01:48:14;;;;;;;4.22;1.55;;;4.70;99.90;;;;;;6216259;23;20047;-88
2022/03/18 01:50:41;;;;;;;4.78;1.58;;;3.90;99.90;;;;;;6216286;23;20016;-88
2022/03/18 01:53:07;;;;;;;10.55;2.55;;;4.40;99.90;;;;;;6214484;23;20012;-88
2022/03/18 01:55:33;;;;;;;5.15;1.73;;;5.00;99.90;;;;;;6189818;23;20016;-86
2022/03/18 01:57:59;;;;;;;6.75;3.75;;;4.60;99.90;;;;;;6216015;23;20390;-84
2022/03/18 02:00:25;;;;;;;4.70;2.22;;;5.30;99.90;;;;;;6216161;23;20070;-88
2022/03/18 02:02:51;;;;;;;8.35;2.10;;;4.00;99.90;;;;;;6215839;23;20347;-88
2022/03/18 02:05:18;;;;;;;4.63;1.90;;;4.90;99.90;;;;;;6213777;23;20017;-87
2022/03/18 02:07:47;;;;;;;5.93;2.60;;;4.10;99.90;;;;;;6214001;23;20020;-88
2022/03/18 02:10:13;;;;;;;3.33;1.33;;;5.10;99.90;;;;;;6216142;23;20019;-88
2022/03/18 02:12:39;;;;;;;6.10;1.75;;;4.10;99.90;;;;;;6214537;23;20082;-88
2022/03/18 02:15:05;;;;;;;3.88;1.50;;;5.00;99.90;;;;;;6215250;23;20071;-87
2022/03/18 02:17:31;;;;;;;4.63;1.63;;;4.10;99.90;;;;;;6215681;23;20017;-88
2022/03/18 02:19:57;;;;;;;7.20;3.10;;;4.20;99.90;;;;;;6214681;23;20083;-87
2022/03/18 02:22:25;;;;;;;10.80;2.45;;;5.10;99.90;;;;;;6215970;23;20408;-88
2022/03/18 02:24:55;;;;;;;3.28;1.77;;;5.10;99.90;;;;;;6215741;23;20012;-88
2022/03/18 02:27:20;;;;;;;5.55;2.05;;;4.70;99.90;;;;;;6214079;23;20067;-88
2022/03/18 02:29:47;;;;;;;4.57;1.75;;;3.90;99.90;;;;;;6215559;23;20016;-88
2022/03/18 02:32:14;;;;;;;8.52;2.15;;;3.80;99.90;;;;;;6216161;23;20023;-81
2022/03/18 02:34:41;;;;;;;5.10;1.55;;;4.70;99.90;;;;;;6214001;23;20465;-83
2022/03/18 02:37:07;;;;;;;7.03;3.05;;;4.70;99.90;;;;;;6215678;23;20084;-83
2022/03/18 02:39:33;;;;;;;3.75;1.92;;;3.90;99.90;;;;;;6215352;23;20074;-82
2022/03/18 02:42:00;;;;;;;4.20;1.90;;;3.80;99.90;;;;;;6213869;23;20040;-83
2022/03/18 02:44:25;;;;;;;6.53;1.60;;;4.50;99.90;;;;;;6215876;23;20027;-83
2022/03/18 02:46:51;;;;;;;3.72;1.50;;;5.00;99.90;;;;;;6215033;23;20016;-85
2022/03/18 02:49:19;;;;;;;7.35;2.20;;;3.80;99.90;;;;;;6215753;23;20075;-88
2022/03/18 02:51:46;;;;;;;5.63;2.22;;;4.80;99.90;;;;;;6215987;23;20017;-86
2022/03/18 02:54:12;;;;;;;5.88;2.42;;;3.70;99.90;;;;;;6215230;23;20096;-86
2022/03/18 02:56:39;;;;;;;4.88;2.05;;;5.00;99.90;;;;;;6213486;23;20025;-83
2022/03/18 02:59:05;;;;;;;7.95;2.15;;;4.70;99.90;;;;;;6215235;23;20443;-85
2022/03/18 03:01:31;;;;;;;4.50;1.30;;;4.90;99.90;;;;;;6215695;23;20023;-83
2022/03/18 03:03:57;;;;;;;5.32;2.03;;;3.80;99.90;;;;;;6215748;23;20008;-87
2022/03/18 03:09:07;;;;;;;3.17;1.65;;;4.80;99.90;;;;;;6215130;23;20090;-87
2022/03/18 03:11:34;;;;;;;4.03;1.67;;;4.60;99.90;;;;;;6215404;23;20032;-86
2022/03/18 03:14:00;;;;;;;6.90;2.00;;;3.80;99.90;;;;;;6215467;23;20059;-85
2022/03/18 03:16:26;;;;;;;6.63;1.70;;;3.80;99.90;;;;;;6214832;23;20446;-85
2022/03/18 03:18:52;;;;;;;2.53;1.60;;;3.90;99.90;;;;;;6215277;23;20017;-83
2022/03/18 03:21:18;;;;;;;4.72;1.92;;;3.90;99.90;;;;;;6213666;23;20016;-87
2022/03/18 03:23:44;;;;;;;6.18;2.50;;;3.90;99.90;;;;;;6215402;23;20091;-89
2022/03/18 03:26:11;;;;;;;5.15;2.17;;;4.00;99.90;;;;;;6215464;23;20009;-87
2022/03/18 03:28:37;;;;;;;7.30;2.22;;;3.90;99.90;;;;;;6213347;23;20048;-88
2022/03/18 03:31:03;;;;;;;4.88;1.73;;;4.00;99.90;;;;;;6215264;23;20012;-87
2022/03/18 03:33:29;;;;;;;3.20;1.65;;;4.10;99.90;;;;;;6215434;23;20059;-81
2022/03/18 03:35:55;;;;;;;3.00;1.23;;;4.00;99.90;;;;;;6215375;23;20398;-85
2022/03/18 03:38:21;;;;;;;4.20;1.40;;;4.00;99.90;;;;;;6215303;23;20020;-87
2022/03/18 03:40:48;;;;;;;3.47;1.65;;;4.00;99.90;;;;;;6215029;23;20051;-87
2022/03/18 03:43:14;;;;;;;7.90;1.77;;;4.00;99.90;;;;;;6215093;23;20390;-87
2022/03/18 03:45:40;;;;;;;4.60;1.80;;;4.30;99.90;;;;;;6214844;23;20047;-85
2022/03/18 03:48:06;;;;;;;5.10;2.08;;;4.00;99.90;;;;;;6214735;23;20017;-88
2022/03/18 03:50:33;;;;;;;4.78;2.08;;;4.00;99.90;;;;;;6213735;23;20031;-88
2022/03/18 03:52:59;;;;;;;5.70;2.22;;;4.00;99.90;;;;;;6213289;23;20028;-84
2022/03/18 03:55:25;;;;;;;6.85;3.38;;;4.20;99.90;;;;;;6214854;23;20021;-87
2022/03/18 03:57:51;;;;;;;8.40;2.38;;;4.10;99.90;;;;;;6215789;23;20012;-87
2022/03/18 04:00:17;;;;;;;6.07;1.75;;;4.10;99.90;;;;;;6214867;23;20637;-87
2022/03/18 04:02:43;;;;;;;3.88;1.77;;;3.50;99.90;;;;;;6215347;23;20016;-88
2022/03/18 04:05:10;;;;;;;3.28;1.83;;;4.50;99.90;;;;;;6215248;23;20427;-87
2022/03/18 04:07:40;;;;;;;5.15;2.28;;;4.80;99.90;;;;;;6215280;23;20012;-86
2022/03/18 04:10:08;;;;;;;6.18;1.98;;;4.10;99.90;;;;;;6214957;23;20047;-88
2022/03/18 04:12:34;;;;;;;5.95;2.03;;;4.20;99.90;;;;;;6214980;23;20023;-88
2022/03/18 04:15:00;;;;;;;6.88;2.50;;;4.20;99.90;;;;;;6214702;23;20338;-85
2022/03/18 04:17:26;;;;;;;5.72;2.40;;;5.20;99.90;;;;;;6215248;23;20048;-88
2022/03/18 04:19:53;;;;;;;4.82;2.28;;;4.20;99.90;;;;;;6215077;23;20028;-88
2022/03/18 04:22:20;;;;;;;5.30;1.92;;;4.20;99.90;;;;;;6215091;23;20093;-88
2022/03/18 04:24:46;;;;;;;3.13;1.77;;;5.10;99.90;;;;;;6213209;23;20028;-88
2022/03/18 04:27:11;;;;;;;3.08;1.90;;;4.20;99.90;;;;;;6213254;23;20021;-89
2022/03/18 04:29:37;;;;;;;7.50;2.28;;;5.60;99.90;;;;;;6217271;23;20021;-86
2022/03/18 04:32:03;;;;;;;6.60;2.78;;;4.30;99.90;;;;;;6217081;23;20370;-88
2022/03/18 04:34:29;;;;;;;3.53;1.95;;;4.30;99.90;;;;;;6216490;23;20021;-88
2022/03/18 04:36:54;;;;;;;3.78;1.92;;;4.10;99.90;;;;;;6215640;23;20012;-88
2022/03/18 04:39:20;;;;;;;4.93;2.13;;;4.30;99.90;;;;;;6219394;23;20074;-88
2022/03/18 04:41:46;;;;;;;3.65;2.00;;;5.00;99.90;;;;;;6218957;23;20012;-88
2022/03/18 04:44:12;;;;;;;3.50;1.65;;;4.90;99.90;;;;;;6216640;23;20091;-88
2022/03/18 04:46:38;;;;;;;3.92;1.60;;;4.30;99.90;;;;;;6214549;23;20394;-87
2022/03/18 04:49:03;;;;;;;4.75;2.20;;;4.40;99.90;;;;;;6216638;23;20024;-86
2022/03/18 04:51:30;;;;;;;4.88;2.30;;;4.70;99.90;;;;;;6214978;23;20025;-83
2022/03/18 04:53:57;;;;;;;5.25;2.40;;;4.40;99.90;;;;;;6186663;23;20028;-89
2022/03/18 04:59:07;;;;;;;4.13;2.00;;;4.70;99.90;;;;;;6186535;23;20021;-90
2022/03/18 05:01:33;;;;;;;5.53;2.88;;;4.70;99.90;;;;;;6184983;23;20340;-89
2022/03/18 05:03:59;;;;;;;7.13;2.53;;;4.30;99.90;;;;;;6186961;23;20379;-88
2022/03/18 05:06:26;;;;;;;6.38;2.85;;;4.20;99.90;;;;;;6186710;23;20044;-89
2022/03/18 05:08:52;;;;;;;7.10;2.70;;;4.20;99.90;;;;;;6186743;23;20114;-89
2022/03/18 05:11:18;;;;;;;5.82;2.72;;;4.10;99.90;;;;;;6184710;23;20017;-90
2022/03/18 05:13:44;;;;;;;5.03;3.15;;;4.20;99.90;;;;;;6186721;23;20044;-90
2022/03/18 05:16:10;;;;;;;6.65;3.35;;;4.80;99.90;;;;;;6184373;23;20017;-88
2022/03/18 05:18:36;;;;;;;6.07;3.00;;;4.30;99.90;;;;;;6186682;23;20013;-89
2022/03/18 05:21:03;;;;;;;8.10;2.55;;;4.40;99.90;;;;;;6185969;23;20447;-86
2022/03/18 05:23:29;;;;;;;4.15;2.83;;;3.90;99.90;;;;;;6186867;23;20044;-88
2022/03/18 05:25:54;;;;;;;6.55;2.95;;;3.90;99.90;;;;;;6184713;23;20020;-85
2022/03/18 05:28:20;;;;;;;5.63;2.78;;;4.30;99.90;;;;;;6186510;23;20015;-89
2022/03/18 05:30:46;;;;;;;5.40;3.35;;;4.40;99.90;;;;;;6184339;23;20025;-89
2022/03/18 05:33:11;;;;;;;6.13;2.63;;;3.80;99.90;;;;;;6186132;23;20062;-86
2022/03/18 05:35:37;;;;;;;6.07;3.17;;;3.80;99.90;;;;;;6185791;23;20064;-87
2022/03/18 05:38:02;;;;;;;4.15;2.60;;;3.80;99.90;;;;;;6186324;23;20019;-88
2022/03/18 05:40:28;;;;;;;8.52;3.08;;;3.80;99.90;;;;;;6186121;23;20359;-87
2022/03/18 05:42:54;;;;;;;7.70;3.22;;;3.70;99.90;;;;;;6186407;23;20366;-87
2022/03/18 05:45:20;;;;;;;6.75;2.97;;;4.10;99.90;;;;;;6185913;23;20374;-87
2022/03/18 05:47:46;;;;;;;6.97;3.10;;;3.60;99.90;;;;;;6185531;23;20439;-85
2022/03/18 05:50:15;;;;;;;7.38;3.70;;;4.00;99.90;;;;;;6186284;23;20055;-87
2022/03/18 05:52:41;;;;;;;4.20;2.63;;;3.80;99.90;;;;;;6184283;23;20017;-89
2022/03/18 05:55:08;;;;;;;5.40;3.05;;;3.60;99.90;;;;;;6185690;23;20013;-87
2022/03/18 05:57:33;;;;;;;5.75;3.58;;;3.60;99.90;;;;;;6186110;23;20013;-88
2022/03/18 06:00:01;;;;;;;6.05;2.53;;;3.60;99.90;;;;;;6184614;23;20013;-80
2022/03/18 06:02:28;;;;;;;8.35;3.55;;;3.50;99.90;;;;;;6186244;23;20017;-89
2022/03/18 06:04:54;;;;;;;6.15;2.72;;;3.50;99.90;;;;;;6185832;23;20023;-88
2022/03/18 06:07:20;;;;;;;5.97;2.97;;;4.50;99.90;;;;;;6185879;23;20048;-88
2022/03/18 06:12:30;;;;;;;4.07;2.85;;;3.50;99.90;;;;;;6184588;23;20017;-86
2022/03/18 06:14:55;;;;;;;5.32;3.17;;;3.90;99.90;;;;;;6184496;23;20028;-88
2022/03/18 06:17:21;;;;;;;10.48;3.80;;;3.50;99.90;;;;;;6185221;23;20044;-89
2022/03/18 06:19:47;;;;;;;7.32;3.45;;;3.50;99.90;;;;;;6185732;23;20071;-89
2022/03/18 06:22:12;;;;;;;5.63;3.35;;;3.80;99.90;;;;;;6185755;23;20020;-89
2022/03/18 06:24:38;;;;;;;7.45;2.90;;;3.60;99.90;;;;;;6184282;23;20021;-88
2022/03/18 06:27:05;;;;;;;4.82;3.28;;;3.50;99.90;;;;;;6185984;23;20024;-87
2022/03/18 06:29:31;;;;;;;5.95;3.03;;;3.60;99.90;;;;;;6185635;23;20017;-87
2022/03/18 06:31:58;;;;;;;5.50;3.55;;;3.80;99.90;;;;;;6184462;23;20035;-88
2022/03/18 06:34:24;;;;;;;8.18;3.63;;;4.10;99.90;;;;;;6185504;23;20079;-88
2022/03/18 06:36:52;;;;;;;8.27;3.92;;;3.70;99.90;;;;;;6185627;23;20025;-88
2022/03/18 06:39:20;;;;;;;5.70;3.22;;;3.70;99.90;;;;;;6185440;23;20028;-88
2022/03/18 06:41:46;;;;;;;7.47;3.20;;;3.80;99.90;;;;;;6183878;23;20344;-88
2022/03/18 06:44:12;;;;;;;5.38;2.90;;;3.80;99.90;;;;;;6184012;23;20076;-88
2022/03/18 06:46:39;;;;;;;6.03;3.40;;;5.20;99.90;;;;;;6185219;23;20017;-88
2022/03/18 06:49:05;;;;;;;5.88;2.85;;;3.90;99.90;;;;;;6185960;23;20025;-88
2022/03/18 06:51:32;;;;;;;4.88;3.08;;;4.00;99.90;;;;;;6185312;23;20012;-87
2022/03/18 06:53:58;;;;;;;6.57;3.50;;;4.00;99.90;;;;;;6187439;23;20017;-84
2022/03/18 06:56:25;;;;;;;6.80;3.38;;;4.10;99.90;;;;;;6187774;23;20031;-82
2022/03/18 06:58:52;;;;;;;8.48;4.55;;;4.20;99.90;;;;;;6185015;23;20021;-83
2022/03/18 07:01:17;;;;;;;7.60;4.05;;;5.20;99.90;;;;;;6183534;23;20021;-86
2022/03/18 07:03:43;;;;;;;7.78;4.15;;;4.80;99.90;;;;;;6183999;23;20024;-83
2022/03/18 07:06:09;;;;;;;5.80;3.97;;;5.60;99.90;;;;;;6185648;23;20052;-82
2022/03/18 07:08:35;;;;;;;5.65;3.42;;;5.00;99.90;;;;;;6183647;23;20040;-83
2022/03/18 07:11:04;;;;;;;5.93;3.33;;;4.80;99.90;;;;;;6185327;23;20348;-86
2022/03/18 07:13:30;;;;;;;6.30;3.35;;;4.70;99.90;;;;;;6185228;23;20028;-86
2022/03/18 07:17:54;;;;;;;9.57;5.32;;;4.80;99.90;;;;;;6184666;23;20386;-87
2022/03/18 07:18:41;;;;;;;6.60;4.95;;;4.60;99.90;;;;;;6185458;23;20021;-87
2022/03/18 07:21:07;;;;;;;5.97;3.72;;;6.30;99.90;;;;;;6185158;23;20529;-87
2022/03/18 07:23:33;;;;;;;5.47;4.15;;;6.00;99.90;;;;;;6185157;23;20462;-88
2022/03/18 07:26:01;;;;;;;6.32;3.85;;;5.80;99.90;;;;;;6185072;23;20060;-87
2022/03/18 07:28:43;;;;;;;6.63;4.07;;;6.70;99.90;;;;;;6185102;23;20017;-86
2022/03/18 07:31:47;;;;;;;8.40;3.75;;;5.70;99.90;;;;;;6158939;23;20056;-86
2022/03/18 07:34:57;;;;;;;6.72;3.78;;;5.70;99.90;;;;;;6160739;23;20021;-86
2022/03/18 07:37:27;;;;;;;12.43;6.45;;;6.20;99.90;;;;;;6183057;23;20039;-87
2022/03/18 07:40:02;;;;;;;11.20;6.30;;;7.40;99.90;;;;;;6183428;23;20043;-86
2022/03/18 07:43:09;;;;;;;10.18;6.20;;;6.70;99.90;;;;;;6183602;23;20025;-85
2022/03/18 07:45:41;;;;;;;13.93;7.50;;;6.80;99.90;;;;;;6122019;23;20092;-86
2022/03/18 07:48:29;;;;;;;26.30;8.63;;;6.40;99.90;;;;;;6098366;23;20018;-85
2022/03/18 07:50:55;;;;;;;;;;;6.50;99.90;;;;;;6099218;23;20018;-85
2022/03/18 07:53:33;;;;;;;15.00;8.57;;;6.90;99.90;;;;;;6122868;23;19939;-85
2022/03/18 07:56:05;;;;;;;16.15;9.85;;;7.00;99.90;;;;;;6122715;23;20025;-85
2022/03/18 07:58:33;;;;;;;16.98;9.20;;;7.30;99.90;;;;;;6098671;23;20028;-85
2022/03/18 08:00:59;;;;;;;14.77;8.30;;;8.00;99.90;;;;;;6123208;23;20152;-85
2022/03/18 08:03:27;;;;;;;14.77;8.60;;;7.60;99.90;;;;;;6124456;23;20054;-84
2022/03/18 08:05:53;;;;;;;21.58;9.80;;;8.10;99.90;;;;;;6124780;23;20041;-85
2022/03/18 08:08:19;;;;;;;16.95;8.57;;;8.40;99.90;;;;;;6124625;23;20480;-86
2022/03/18 08:10:45;;;;;;;20.60;8.88;;;7.90;99.90;;;;;;6100565;23;20025;-86
2022/03/18 08:13:10;;;;;;;19.52;9.50;;;8.20;99.90;;;;;;6125070;23;20017;-86
2022/03/18 08:15:36;;;;;;;23.40;8.80;;;8.50;99.90;;;;;;6100523;23;20018;-86
2022/03/18 08:18:02;;;;;;;18.85;8.43;;;8.40;99.90;;;;;;6124894;23;20025;-85
2022/03/18 08:20:33;;;;;;;17.70;8.30;;;8.50;99.90;;;;;;6125159;23;20112;-87
2022/03/18 08:22:59;;;;;;;14.27;8.13;;;8.50;99.90;;;;;;6173616;23;20148;-84
2022/03/18 08:25:24;;;;;;;14.85;7.78;;;8.70;99.90;;;;;;6187173;23;20057;-86
2022/03/18 08:27:50;;;;;;;22.58;8.02;;;9.20;99.90;;;;;;6186385;23;20017;-86
2022/03/18 08:30:17;;;;;;;13.65;6.97;;;9.00;99.90;;;;;;6184628;23;20021;-84
2022/03/18 08:32:46;;;;;;;16.10;6.85;;;9.20;99.90;;;;;;6184821;23;20021;-86
2022/03/18 08:35:11;;;;;;;18.38;7.72;;;9.40;99.90;;;;;;6209952;23;20025;-86
2022/03/18 08:40:28;;;;;;;12.73;5.32;;;10.10;99.90;;;;;;6185155;23;20101;-85
2022/03/18 08:42:56;;;;;;;10.60;5.20;;;9.70;99.90;;;;;;6186607;23;20013;-88
2022/03/18 08:45:28;;;;;;;12.23;4.78;;;9.80;99.90;;;;;;6185159;23;20121;-86
2022/03/18 08:47:55;;;;;;;11.13;4.80;;;9.90;99.90;;;;;;6186437;23;20028;-89
2022/03/18 08:50:21;;;;;;;9.65;4.93;;;10.20;99.90;;;;;;6186817;23;20017;-85
2022/03/18 08:52:49;;;;;;;14.77;4.75;;;10.10;99.90;;;;;;6210387;23;20371;-85
2022/03/18 08:55:15;;;;;;;10.93;4.68;;;10.20;99.90;;;;;;6186572;23;20016;-86
2022/03/18 08:57:42;;;;;;;9.63;4.65;;;10.60;99.90;;;;;;6186292;23;20095;-86
2022/03/18 09:00:15;;;;;;;10.45;5.82;;;10.40;99.90;;;;;;6184904;23;20408;-85
2022/03/18 09:02:43;;;;;;;11.82;4.05;;;10.70;99.90;;;;;;6186811;23;20040;-86
2022/03/18 09:05:10;;;;;;;6.35;3.45;;;10.90;99.90;;;;;;6186577;23;20088;-87
2022/03/18 09:07:36;;;;;;;14.60;5.95;;;10.80;99.90;;;;;;6186322;23;20020;-86
2022/03/18 09:10:04;;;;;;;11.63;4.70;;;11.00;99.90;;;;;;6186275;23;20512;-86
2022/03/18 09:12:30;;;;;;;12.68;4.43;;;11.00;99.90;;;;;;6186646;23;20059;-85
2022/03/18 09:14:56;;;;;;;12.27;4.70;;;11.20;99.90;;;;;;6185975;23;20025;-87
2022/03/18 09:17:22;;;;;;;12.68;3.88;;;11.20;99.90;;;;;;6235527;22;20517;-87
2022/03/18 09:19:51;;;;;;;13.20;3.65;;;11.40;99.90;;;;;;6246764;23;20090;-86
2022/03/18 09:22:17;;;;;;;18.40;5.55;;;12.20;99.90;;;;;;6246899;23;20016;-84
2022/03/18 09:24:44;;;;;;;12.90;3.60;;;11.40;99.90;;;;;;6247355;23;20061;-81
2022/03/18 09:27:10;;;;;;;13.18;3.85;;;11.60;99.90;;;;;;6246928;23;20023;-81
2022/03/18 09:29:37;;;;;;;16.45;4.55;;;11.60;99.90;;;;;;6246615;23;20013;-80
2022/03/18 09:32:04;;;;;;;15.45;4.53;;;12.00;99.90;;;;;;6246972;23;20019;-81
2022/03/18 09:34:29;;;;;;;10.93;3.47;;;11.70;99.90;;;;;;6246610;23;20012;-83
2022/03/18 09:36:57;;;;;;;9.65;3.08;;;11.80;99.90;;;;;;6247014;23;20063;-81
2022/03/18 09:39:24;;;;;;;8.77;3.30;;;11.90;99.90;;;;;;6246849;23;20012;-81
2022/03/18 09:41:51;;;;;;;15.45;3.53;;;11.90;99.90;;;;;;6246376;23;20027;-81
2022/03/18 09:44:17;;;;;;;8.88;3.10;;;12.50;99.90;;;;;;6246708;23;20016;-81
2022/03/18 09:46:45;;;;;;;11.05;3.47;;;12.10;99.90;;;;;;6219437;23;20107;-83
2022/03/18 09:49:14;;;;;;;9.32;3.08;;;12.20;99.90;;;;;;6245892;23;20062;-87
2022/03/18 09:51:46;;;;;;;12.00;3.65;;;12.30;99.90;;;;;;6245751;23;20446;-82
2022/03/18 09:54:16;;;;;;;9.85;2.90;;;12.90;99.90;;;;;;6246115;23;20454;-82
2022/03/18 09:56:48;;;;;;;9.00;3.00;;;12.40;99.90;;;;;;6219298;23;20385;-83
2022/03/18 09:59:15;;;;;;;11.27;3.45;;;12.40;99.90;;;;;;6218996;23;20031;-83
2022/03/18 10:01:41;;;;;;;11.80;3.38;;;12.70;99.90;;;;;;6246484;23;20012;-83
2022/03/18 10:04:14;;;;;;;9.05;3.00;;;12.70;99.90;;;;;;6241532;23;20464;-81
2022/03/18 10:06:44;;;;;;;12.43;4.05;;;12.70;99.90;;;;;;6218789;23;20039;-84
2022/03/18 10:09:12;;;;;;;10.13;2.80;;;12.90;99.90;;;;;;6219252;23;20074;-81
2022/03/18 10:11:42;;;;;;;7.78;3.08;;;12.90;99.90;;;;;;6246311;23;20377;-87
2022/03/18 10:14:13;;;;;;;15.57;3.58;;;12.90;99.90;;;;;;6246298;23;20051;-82
2022/03/18 10:16:50;;;;;;;11.65;4.00;;;13.00;99.90;;;;;;6245301;23;20040;-81
2022/03/18 10:19:25;;;;;;;11.50;3.72;;;13.10;99.90;;;;;;6246387;23;20035;-82
2022/03/18 10:21:56;;;;;;;11.65;3.03;;;13.20;99.90;;;;;;6246237;23;20016;-83
2022/03/18 10:24:30;;;;;;;8.02;2.45;;;13.40;99.90;;;;;;6246131;23;20016;-83
2022/03/18 10:27:08;;;;;;;16.65;2.90;;;13.50;99.90;;;;;;6245866;23;20074;-84
2022/03/18 10:50:45;;;;;;;8.73;2.40;;;14.20;99.90;;;;;;6283386;22;20031;-86
2022/03/18 10:53:40;;;;;;;11.05;2.22;;;14.20;99.90;;;;;;6303871;22;20027;-85
2022/03/18 11:06:37;;;;;;;7.28;1.85;;;14.90;99.90;;;;;;6239349;22;20028;-85
2022/03/18 11:09:03;;;;;;;9.60;2.03;;;15.00;99.90;;;;;;6246017;23;20497;-82
2022/03/18 11:11:29;;;;;;;16.95;3.75;;;15.00;99.90;;;;;;6246102;23;20054;-85
2022/03/18 13:28:05;;;;;;;10.93;1.60;;;15.90;99.90;;;;;;6215347;22;20025;-87
2022/03/18 13:33:47;;;;;;;10.88;1.92;;;15.90;99.90;;;;;;6193199;22;20025;-88
2022/03/18 13:45:50;;;;;;;7.00;1.13;;;15.90;99.90;;;;;;6196670;22;20054;-88
2022/03/18 14:10:25;;;;;;;10.45;1.17;;;15.50;99.90;;;;;;6220604;22;20024;-86
2022/03/18 15:27:01;;;;;;;7.55;1.45;;;12.60;99.90;;;;;;6153645;23;20080;-89
2022/03/18 15:33:03;;;;;;;11.35;1.75;;;12.30;99.90;;;;;;6240221;22;20031;-84
2022/03/18 15:38:12;;;;;;;10.20;1.23;;;12.20;99.90;;;;;;6207309;23;20021;-88
2022/03/18 15:40:49;;;;;;;6.65;1.63;;;12.10;99.90;;;;;;6184056;23;20024;-87
2022/03/18 15:43:27;;;;;;;7.97;1.20;;;12.00;99.90;;;;;;6185965;23;20017;-89
2022/03/18 15:52:21;;;;;;;12.93;2.40;;;11.70;99.90;;;;;;6228822;22;20020;-89
2022/03/18 15:54:52;;;;;;;14.90;1.58;;;11.70;99.90;;;;;;6245974;23;20023;-87
2022/03/18 16:06:58;;;;;;;;;;;;;;;;;;;;;
2022/03/18 16:09:41;;;;;;;8.75;1.30;;;11.30;99.90;;;;;;6200702;22;20035;-88
2022/03/18 16:12:09;;;;;;;15.60;1.67;;;11.20;99.90;;;;;;6246144;23;20024;-89
2022/03/18 16:14:35;;;;;;;17.38;2.00;;;11.20;99.90;;;;;;6245429;23;20016;-86
2022/03/18 16:17:01;;;;;;;12.00;2.20;;;11.80;99.90;;;;;;6245922;23;20012;-86
2022/03/18 16:19:27;;;;;;;11.38;2.30;;;11.10;99.90;;;;;;6245422;23;20142;-86
2022/03/18 16:21:53;;;;;;;16.50;2.70;;;11.20;99.90;;;;;;6245349;23;20505;-85
2022/03/18 16:24:19;;;;;;;10.60;3.15;;;11.00;99.90;;;;;;6246436;23;20012;-84
2022/03/18 16:29:23;;;;;;;10.13;2.63;;;10.80;99.90;;;;;;6247065;23;20026;-87
2022/03/18 16:31:51;;;;;;;9.68;1.55;;;10.70;99.90;;;;;;6247466;23;20016;-86
2022/03/18 16:34:19;;;;;;;11.63;1.88;;;10.60;99.90;;;;;;6220563;23;20073;-87
2022/03/18 16:36:46;;;;;;;10.40;1.70;;;10.60;99.90;;;;;;6247434;23;20346;-86
2022/03/18 16:39:13;;;;;;;12.48;2.38;;;10.60;99.90;;;;;;6246748;23;20020;-87
2022/03/18 16:41:39;;;;;;;11.23;1.88;;;11.00;99.90;;;;;;6220180;23;20023;-86
2022/03/18 16:44:07;;;;;;;11.98;1.30;;;10.40;99.90;;;;;;6247332;23;20016;-85
2022/03/18 16:49:28;;;;;;;8.82;2.72;;;10.30;99.90;;;;;;6246853;23;20027;-85
2022/03/18 16:51:57;;;;;;;8.13;1.80;;;10.30;99.90;;;;;;6247431;23;20324;-84
2022/03/18 16:54:25;;;;;;;13.88;2.45;;;10.20;99.90;;;;;;6247252;23;20014;-85
2022/03/18 16:56:52;;;;;;;9.63;2.88;;;10.20;99.90;;;;;;6247072;23;20016;-86
2022/03/18 16:59:17;;;;;;;9.23;2.17;;;10.10;99.90;;;;;;6247095;23;20371;-89
2022/03/18 17:01:47;;;;;;;12.57;2.58;;;10.00;99.90;;;;;;6247211;23;20043;-84
2022/03/18 17:04:13;;;;;;;9.05;2.33;;;9.90;99.90;;;;;;6247250;23;20066;-87
2022/03/18 17:06:39;;;;;;;13.90;1.58;;;9.70;99.90;;;;;;6247206;23;20341;-85
2022/03/18 17:09:05;;;;;;;10.38;1.50;;;9.60;99.90;;;;;;6246786;23;20091;-84
2022/03/18 17:11:31;;;;;;;6.30;1.45;;;9.50;99.90;;;;;;6246758;23;20280;-85
2022/03/18 17:13:58;;;;;;;15.32;2.15;;;9.50;99.90;;;;;;6247313;23;20020;-86
2022/03/18 17:16:24;;;;;;;12.20;2.38;;;9.40;99.90;;;;;;6246914;23;20016;-85
2022/03/18 17:18:50;;;;;;;7.68;1.58;;;9.30;99.90;;;;;;6247256;23;20023;-86
2022/03/18 17:21:16;;;;;;;14.70;2.25;;;9.20;99.90;;;;;;6246401;23;20355;-87
2022/03/18 17:23:42;;;;;;;12.10;2.53;;;9.40;99.90;;;;;;6246995;23;20016;-84
2022/03/18 17:26:08;;;;;;;14.48;2.45;;;8.90;99.90;;;;;;6246511;23;20466;-89
2022/03/18 17:28:34;;;;;;;13.30;1.70;;;9.00;99.90;;;;;;6219774;23;20020;-88
2022/03/18 17:31:02;;;;;;;9.85;1.35;;;9.00;99.90;;;;;;6219586;23;20013;-86
2022/03/18 17:33:29;;;;;;;7.57;1.88;;;8.80;99.90;;;;;;6246412;23;20016;-86
2022/03/18 17:35:55;;;;;;;10.10;1.88;;;8.70;99.90;;;;;;6245931;23;20016;-83
2022/03/18 17:38:21;;;;;;;13.25;1.80;;;8.50;99.90;;;;;;6246450;23;20022;-87
2022/03/18 17:40:46;;;;;;;17.58;1.92;;;8.40;99.90;;;;;;6246238;23;20047;-87
2022/03/18 17:43:12;;;;;;;14.52;3.00;;;8.40;99.90;;;;;;6218800;23;20023;-88
2022/03/18 17:45:38;;;;;;;11.23;2.08;;;8.80;99.90;;;;;;6246227;23;20062;-86
2022/03/18 17:48:05;;;;;;;21.02;2.55;;;8.20;99.90;;;;;;6245995;23;20485;-84
2022/03/18 17:50:30;;;;;;;11.73;1.73;;;8.10;99.90;;;;;;6245899;23;20013;-86
2022/03/18 17:52:56;;;;;;;12.40;2.10;;;8.00;99.90;;;;;;6246708;23;20047;-87
2022/03/18 17:55:22;;;;;;;13.65;2.90;;;8.00;99.90;;;;;;6246498;23;20051;-83
2022/03/18 17:57:48;;;;;;;15.95;3.50;;;7.90;99.90;;;;;;6219375;23;20016;-87
2022/03/18 18:00:14;;;;;;;10.38;1.70;;;7.80;99.90;;;;;;6245486;23;20065;-85
2022/03/18 18:02:40;;;;;;;11.77;1.55;;;7.80;99.90;;;;;;6246228;23;20019;-85
2022/03/18 18:05:06;;;;;;;16.02;3.10;;;7.70;99.90;;;;;;6246506;23;20020;-82
2022/03/18 18:07:32;;;;;;;20.15;3.08;;;7.60;99.90;;;;;;6245748;23;20034;-84
2022/03/18 18:09:58;;;;;;;17.95;3.22;;;7.50;99.90;;;;;;6245810;23;20043;-86
2022/03/18 18:12:24;;;;;;;17.00;3.10;;;7.60;99.90;;;;;;6246479;23;20044;-84
2022/03/18 18:14:50;;;;;;;19.95;3.00;;;7.50;99.90;;;;;;6246212;23;20039;-85